sensor_id;sensor_type;location;lat;lon;timestamp;temperature;humidity
76897;SHT30;65856;52.178;21.176;2024-01-15T00:01:47;2.57;81.80
76897;SHT30;65856;52.178;21.176;2024-01-15T00:04:13;2.57;81.80
76897;SHT30;65856;52.178;21.176;2024-01-15T00:06:38;2.57;81.80
76897;SHT30;65856;52.178;21.176;2024-01-15T00:09:04;2.55;81.80
76897;SHT30;65856;52.178;21.176;2024-01-15T00:11:30;2.56;81.80
76897;SHT30;65856;52.178;21.176;2024-01-15T00:13:55;2.53;81.80
76897;SHT30;65856;52.178;21.176;2024-01-15T00:16:21;2.51;81.80
76897;SHT30;65856;52.178;21.176;2024-01-15T00:18:46;2.49;81.80
76897;SHT30;65856;52.178;21.176;2024-01-15T00:21:12;2.48;81.85
76897;SHT30;65856;52.178;21.176;2024-01-15T00:23:39;2.46;81.90
76897;SHT30;65856;52.178;21.176;2024-01-15T00:26:09;2.48;81.91
76897;SHT30;65856;52.178;21.176;2024-01-15T00:28:35;2.47;81.91
76897;SHT30;65856;52.178;21.176;2024-01-15T00:31:01;2.46;81.92
76897;SHT30;65856;52.178;21.176;2024-01-15T00:33:27;2.46;81.94
76897;SHT30;65856;52.178;21.176;2024-01-15T00:35:52;2.47;82.00
76897;SHT30;65856;52.178;21.176;2024-01-15T00:38:18;2.46;82.00
76897;SHT30;65856;52.178;21.176;2024-01-15T00:40:43;2.45;82.00
76897;SHT30;65856;52.178;21.176;2024-01-15T00:43:08;2.45;81.99
76897;SHT30;65856;52.178;21.176;2024-01-15T00:45:34;2.46;82.00
76897;SHT30;65856;52.178;21.176;2024-01-15T00:47:59;2.45;81.93
76897;SHT30;65856;52.178;21.176;2024-01-15T00:50:26;2.42;81.90
76897;SHT30;65856;52.178;21.176;2024-01-15T00:52:51;2.42;81.91
76897;SHT30;65856;52.178;21.176;2024-01-15T00:55:17;2.43;81.88
76897;SHT30;65856;52.178;21.176;2024-01-15T00:58:15;2.40;81.80
76897;SHT30;65856;52.178;21.176;2024-01-15T01:00:41;2.40;81.83
76897;SHT30;65856;52.178;21.176;2024-01-15T01:03:07;2.41;81.90
76897;SHT30;65856;52.178;21.176;2024-01-15T01:05:33;2.39;81.93
76897;SHT30;65856;52.178;21.176;2024-01-15T01:07:59;2.39;82.00
76897;SHT30;65856;52.178;21.176;2024-01-15T01:10:24;2.38;82.10
76897;SHT30;65856;52.178;21.176;2024-01-15T01:12:50;2.37;82.20
76897;SHT30;65856;52.178;21.176;2024-01-15T01:15:15;2.37;82.28
76897;SHT30;65856;52.178;21.176;2024-01-15T01:17:41;2.37;82.31
76897;SHT30;65856;52.178;21.176;2024-01-15T01:20:06;2.36;82.39
76897;SHT30;65856;52.178;21.176;2024-01-15T01:22:34;2.36;82.40
76897;SHT30;65856;52.178;21.176;2024-01-15T01:24:59;2.36;82.50
76897;SHT30;65856;52.178;21.176;2024-01-15T01:27:25;2.36;82.58
76897;SHT30;65856;52.178;21.176;2024-01-15T01:29:50;2.35;82.69
76897;SHT30;65856;52.178;21.176;2024-01-15T01:32:16;2.34;82.70
76897;SHT30;65856;52.178;21.176;2024-01-15T01:34:42;2.35;82.79
76897;SHT30;65856;52.178;21.176;2024-01-15T01:37:08;2.34;82.80
76897;SHT30;65856;52.178;21.176;2024-01-15T01:39:35;2.32;82.87
76897;SHT30;65856;52.178;21.176;2024-01-15T01:42:00;2.31;82.90
76897;SHT30;65856;52.178;21.176;2024-01-15T01:44:26;2.32;82.90
76897;SHT30;65856;52.178;21.176;2024-01-15T01:46:51;2.32;82.90
76897;SHT30;65856;52.178;21.176;2024-01-15T01:49:17;2.31;82.90
76897;SHT30;65856;52.178;21.176;2024-01-15T01:51:43;2.31;82.95
76897;SHT30;65856;52.178;21.176;2024-01-15T01:54:09;2.30;82.95
76897;SHT30;65856;52.178;21.176;2024-01-15T01:56:37;2.30;82.99
76897;SHT30;65856;52.178;21.176;2024-01-15T01:59:03;2.32;82.96
76897;SHT30;65856;52.178;21.176;2024-01-15T02:01:29;2.30;82.90
76897;SHT30;65856;52.178;21.176;2024-01-15T02:03:56;2.30;82.90
76897;SHT30;65856;52.178;21.176;2024-01-15T02:06:22;2.29;82.90
76897;SHT30;65856;52.178;21.176;2024-01-15T02:08:48;2.30;82.90
76897;SHT30;65856;52.178;21.176;2024-01-15T02:11:14;2.30;82.89
76897;SHT30;65856;52.178;21.176;2024-01-15T02:13:40;2.31;82.89
76897;SHT30;65856;52.178;21.176;2024-01-15T02:16:05;2.30;82.83
76897;SHT30;65856;52.178;21.176;2024-01-15T02:18:39;2.31;82.81
76897;SHT30;65856;52.178;21.176;2024-01-15T02:21:09;2.31;82.81
76897;SHT30;65856;52.178;21.176;2024-01-15T02:23:35;2.31;82.76
76897;SHT30;65856;52.178;21.176;2024-01-15T02:26:02;2.31;82.74
76897;SHT30;65856;52.178;21.176;2024-01-15T02:28:28;2.30;82.70
76897;SHT30;65856;52.178;21.176;2024-01-15T02:30:54;2.32;82.70
76897;SHT30;65856;52.178;21.176;2024-01-15T02:33:19;2.33;82.68
76897;SHT30;65856;52.178;21.176;2024-01-15T02:35:44;2.34;82.65
76897;SHT30;65856;52.178;21.176;2024-01-15T02:38:11;2.34;82.60
76897;SHT30;65856;52.178;21.176;2024-01-15T02:40:37;2.34;82.55
76897;SHT30;65856;52.178;21.176;2024-01-15T02:43:03;2.32;82.43
76897;SHT30;65856;52.178;21.176;2024-01-15T02:45:29;2.32;82.43
76897;SHT30;65856;52.178;21.176;2024-01-15T02:47:55;2.32;82.40
76897;SHT30;65856;52.178;21.176;2024-01-15T02:50:21;2.32;82.35
76897;SHT30;65856;52.178;21.176;2024-01-15T02:52:46;2.31;82.30
76897;SHT30;65856;52.178;21.176;2024-01-15T02:55:12;2.30;82.22
76897;SHT30;65856;52.178;21.176;2024-01-15T02:57:37;2.30;82.21
76897;SHT30;65856;52.178;21.176;2024-01-15T03:00:03;2.29;82.14
76897;SHT30;65856;52.178;21.176;2024-01-15T03:02:29;2.30;82.11
76897;SHT30;65856;52.178;21.176;2024-01-15T03:04:56;2.29;82.08
76897;SHT30;65856;52.178;21.176;2024-01-15T03:07:22;2.28;82.02
76897;SHT30;65856;52.178;21.176;2024-01-15T03:09:48;2.28;82.02
76897;SHT30;65856;52.178;21.176;2024-01-15T03:12:13;2.28;82.10
76897;SHT30;65856;52.178;21.176;2024-01-15T03:14:38;2.26;82.09
76897;SHT30;65856;52.178;21.176;2024-01-15T03:17:04;2.23;82.10
76897;SHT30;65856;52.178;21.176;2024-01-15T03:19:29;2.20;82.17
76897;SHT30;65856;52.178;21.176;2024-01-15T03:21:55;2.20;82.20
76897;SHT30;65856;52.178;21.176;2024-01-15T03:24:21;2.21;82.18
76897;SHT30;65856;52.178;21.176;2024-01-15T03:26:47;2.19;82.15
76897;SHT30;65856;52.178;21.176;2024-01-15T03:29:12;2.20;82.14
76897;SHT30;65856;52.178;21.176;2024-01-15T03:31:38;2.19;82.15
76897;SHT30;65856;52.178;21.176;2024-01-15T03:34:03;2.20;82.29
76897;SHT30;65856;52.178;21.176;2024-01-15T03:36:28;2.17;82.39
76897;SHT30;65856;52.178;21.176;2024-01-15T03:38:54;2.16;82.52
76897;SHT30;65856;52.178;21.176;2024-01-15T03:41:20;2.14;82.61
76897;SHT30;65856;52.178;21.176;2024-01-15T03:43:45;2.11;82.64
76897;SHT30;65856;52.178;21.176;2024-01-15T03:46:10;2.09;82.67
76897;SHT30;65856;52.178;21.176;2024-01-15T03:48:36;2.08;82.72
76897;SHT30;65856;52.178;21.176;2024-01-15T03:51:01;2.09;82.76
76897;SHT30;65856;52.178;21.176;2024-01-15T03:53:27;2.09;82.74
76897;SHT30;65856;52.178;21.176;2024-01-15T03:55:52;2.07;82.72
76897;SHT30;65856;52.178;21.176;2024-01-15T03:58:18;2.08;82.75
76897;SHT30;65856;52.178;21.176;2024-01-15T04:00:43;2.05;82.73
76897;SHT30;65856;52.178;21.176;2024-01-15T04:03:08;2.04;82.75
76897;SHT30;65856;52.178;21.176;2024-01-15T04:05:34;2.04;82.79
76897;SHT30;65856;52.178;21.176;2024-01-15T04:08:00;2.03;82.72
76897;SHT30;65856;52.178;21.176;2024-01-15T04:10:25;2.02;82.79
76897;SHT30;65856;52.178;21.176;2024-01-15T04:12:51;2.02;82.82
76897;SHT30;65856;52.178;21.176;2024-01-15T04:15:16;1.99;82.88
76897;SHT30;65856;52.178;21.176;2024-01-15T04:17:42;1.97;82.93
76897;SHT30;65856;52.178;21.176;2024-01-15T04:20:07;1.95;82.99
76897;SHT30;65856;52.178;21.176;2024-01-15T04:22:36;1.95;83.00
76897;SHT30;65856;52.178;21.176;2024-01-15T04:25:02;1.94;82.99
76897;SHT30;65856;52.178;21.176;2024-01-15T04:27:29;1.94;82.96
76897;SHT30;65856;52.178;21.176;2024-01-15T04:29:54;1.95;82.91
76897;SHT30;65856;52.178;21.176;2024-01-15T04:32:19;1.97;82.89
76897;SHT30;65856;52.178;21.176;2024-01-15T04:34:45;1.94;82.83
76897;SHT30;65856;52.178;21.176;2024-01-15T04:37:10;1.93;82.84
76897;SHT30;65856;52.178;21.176;2024-01-15T04:39:36;1.92;82.89
76897;SHT30;65856;52.178;21.176;2024-01-15T04:42:01;1.93;82.87
76897;SHT30;65856;52.178;21.176;2024-01-15T04:44:28;1.92;82.84
76897;SHT30;65856;52.178;21.176;2024-01-15T04:46:53;1.92;82.80
76897;SHT30;65856;52.178;21.176;2024-01-15T04:49:19;1.92;82.76
76897;SHT30;65856;52.178;21.176;2024-01-15T04:51:44;1.93;82.70
76897;SHT30;65856;52.178;21.176;2024-01-15T04:54:09;1.96;82.65
76897;SHT30;65856;52.178;21.176;2024-01-15T04:56:35;1.96;82.57
76897;SHT30;65856;52.178;21.176;2024-01-15T04:59:00;1.97;82.51
76897;SHT30;65856;52.178;21.176;2024-01-15T05:01:25;1.98;82.49
76897;SHT30;65856;52.178;21.176;2024-01-15T05:03:57;2.01;82.41
76897;SHT30;65856;52.178;21.176;2024-01-15T05:06:22;2.02;82.38
76897;SHT30;65856;52.178;21.176;2024-01-15T05:08:47;2.05;82.39
76897;SHT30;65856;52.178;21.176;2024-01-15T05:11:13;2.06;82.33
76897;SHT30;65856;52.178;21.176;2024-01-15T05:13:38;2.08;82.28
76897;SHT30;65856;52.178;21.176;2024-01-15T05:16:03;2.10;82.21
76897;SHT30;65856;52.178;21.176;2024-01-15T05:18:29;2.09;82.19
76897;SHT30;65856;52.178;21.176;2024-01-15T05:20:54;2.09;82.14
76897;SHT30;65856;52.178;21.176;2024-01-15T05:23:20;2.09;82.10
76897;SHT30;65856;52.178;21.176;2024-01-15T05:25:45;2.11;82.10
76897;SHT30;65856;52.178;21.176;2024-01-15T05:28:11;2.11;82.05
76897;SHT30;65856;52.178;21.176;2024-01-15T05:30:36;2.11;82.00
76897;SHT30;65856;52.178;21.176;2024-01-15T05:33:01;2.09;82.00
76897;SHT30;65856;52.178;21.176;2024-01-15T05:35:28;2.09;82.00
76897;SHT30;65856;52.178;21.176;2024-01-15T05:37:53;2.12;82.28
76897;SHT30;65856;52.178;21.176;2024-01-15T05:40:19;2.18;82.29
76897;SHT30;65856;52.178;21.176;2024-01-15T05:42:44;2.17;82.03
76897;SHT30;65856;52.178;21.176;2024-01-15T05:45:09;2.15;81.93
76897;SHT30;65856;52.178;21.176;2024-01-15T05:47:35;2.14;81.90
76897;SHT30;65856;52.178;21.176;2024-01-15T05:50:00;2.13;81.77
76897;SHT30;65856;52.178;21.176;2024-01-15T05:52:27;2.12;81.71
76897;SHT30;65856;52.178;21.176;2024-01-15T05:54:52;2.13;81.62
76897;SHT30;65856;52.178;21.176;2024-01-15T05:57:18;2.13;81.60
76897;SHT30;65856;52.178;21.176;2024-01-15T05:59:43;2.14;81.59
76897;SHT30;65856;52.178;21.176;2024-01-15T06:02:09;2.16;81.53
76897;SHT30;65856;52.178;21.176;2024-01-15T06:04:35;2.17;81.43
76897;SHT30;65856;52.178;21.176;2024-01-15T06:07:01;2.17;81.32
76897;SHT30;65856;52.178;21.176;2024-01-15T06:09:26;2.19;81.32
76897;SHT30;65856;52.178;21.176;2024-01-15T06:11:52;2.22;81.17
76897;SHT30;65856;52.178;21.176;2024-01-15T06:14:18;2.22;81.21
76897;SHT30;65856;52.178;21.176;2024-01-15T06:16:43;2.23;81.26
76897;SHT30;65856;52.178;21.176;2024-01-15T06:19:08;2.24;81.15
76897;SHT30;65856;52.178;21.176;2024-01-15T06:21:34;2.23;81.08
76897;SHT30;65856;52.178;21.176;2024-01-15T06:23:59;2.23;81.13
76897;SHT30;65856;52.178;21.176;2024-01-15T06:26:25;2.24;81.19
76897;SHT30;65856;52.178;21.176;2024-01-15T06:28:50;2.24;81.14
76897;SHT30;65856;52.178;21.176;2024-01-15T06:31:15;2.25;81.07
76897;SHT30;65856;52.178;21.176;2024-01-15T06:33:41;2.23;80.91
76897;SHT30;65856;52.178;21.176;2024-01-15T06:36:07;2.23;80.75
76897;SHT30;65856;52.178;21.176;2024-01-15T06:38:32;2.22;80.71
76897;SHT30;65856;52.178;21.176;2024-01-15T06:40:58;2.24;80.74
76897;SHT30;65856;52.178;21.176;2024-01-15T06:43:23;2.25;80.67
76897;SHT30;65856;52.178;21.176;2024-01-15T06:45:49;2.24;80.70
76897;SHT30;65856;52.178;21.176;2024-01-15T06:48:14;2.27;80.66
76897;SHT30;65856;52.178;21.176;2024-01-15T06:50:41;2.27;80.55
76897;SHT30;65856;52.178;21.176;2024-01-15T06:53:08;2.28;80.48
76897;SHT30;65856;52.178;21.176;2024-01-15T06:55:33;2.28;80.34
76897;SHT30;65856;52.178;21.176;2024-01-15T06:57:59;2.31;80.42
76897;SHT30;65856;52.178;21.176;2024-01-15T07:00:24;2.32;80.12
76897;SHT30;65856;52.178;21.176;2024-01-15T07:02:50;2.32;80.03
76897;SHT30;65856;52.178;21.176;2024-01-15T07:05:16;2.31;80.01
76897;SHT30;65856;52.178;21.176;2024-01-15T07:07:42;2.30;79.71
76897;SHT30;65856;52.178;21.176;2024-01-15T07:10:08;2.31;79.78
76897;SHT30;65856;52.178;21.176;2024-01-15T07:12:33;2.46;80.31
76897;SHT30;65856;52.178;21.176;2024-01-15T07:14:59;2.75;79.97
76897;SHT30;65856;52.178;21.176;2024-01-15T07:17:24;3.01;79.31
76897;SHT30;65856;52.178;21.176;2024-01-15T07:19:50;3.01;78.82
76897;SHT30;65856;52.178;21.176;2024-01-15T07:22:15;2.96;78.80
76897;SHT30;65856;52.178;21.176;2024-01-15T07:24:42;3.09;78.81
76897;SHT30;65856;52.178;21.176;2024-01-15T07:27:08;3.07;78.64
76897;SHT30;65856;52.178;21.176;2024-01-15T07:29:34;2.97;78.81
76897;SHT30;65856;52.178;21.176;2024-01-15T07:32:03;2.90;78.87
76897;SHT30;65856;52.178;21.176;2024-01-15T07:34:29;2.86;79.04
76897;SHT30;65856;52.178;21.176;2024-01-15T07:36:56;2.81;79.26
76897;SHT30;65856;52.178;21.176;2024-01-15T07:39:22;2.76;79.50
76897;SHT30;65856;52.178;21.176;2024-01-15T07:41:49;2.69;79.74
76897;SHT30;65856;52.178;21.176;2024-01-15T07:44:15;2.66;79.96
76897;SHT30;65856;52.178;21.176;2024-01-15T07:46:44;2.65;80.10
76897;SHT30;65856;52.178;21.176;2024-01-15T07:49:10;2.58;80.11
76897;SHT30;65856;52.178;21.176;2024-01-15T07:51:36;2.53;80.26
76897;SHT30;65856;52.178;21.176;2024-01-15T07:54:01;2.50;80.47
76897;SHT30;65856;52.178;21.176;2024-01-15T07:56:27;2.49;80.64
76897;SHT30;65856;52.178;21.176;2024-01-15T07:58:52;2.45;80.67
76897;SHT30;65856;52.178;21.176;2024-01-15T08:01:18;2.40;80.80
76897;SHT30;65856;52.178;21.176;2024-01-15T08:03:43;2.36;80.87
76897;SHT30;65856;52.178;21.176;2024-01-15T08:06:09;2.34;80.88
76897;SHT30;65856;52.178;21.176;2024-01-15T08:08:35;2.31;80.81
76897;SHT30;65856;52.178;21.176;2024-01-15T08:11:00;2.30;80.82
76897;SHT30;65856;52.178;21.176;2024-01-15T08:13:26;2.30;80.75
76897;SHT30;65856;52.178;21.176;2024-01-15T08:15:52;2.31;80.71
76897;SHT30;65856;52.178;21.176;2024-01-15T08:18:18;2.31;80.73
76897;SHT30;65856;52.178;21.176;2024-01-15T08:20:43;2.33;80.70
76897;SHT30;65856;52.178;21.176;2024-01-15T08:23:09;2.35;80.71
76897;SHT30;65856;52.178;21.176;2024-01-15T08:25:34;2.36;80.74
76897;SHT30;65856;52.178;21.176;2024-01-15T08:28:00;2.36;80.87
76897;SHT30;65856;52.178;21.176;2024-01-15T08:30:25;2.35;81.02
76897;SHT30;65856;52.178;21.176;2024-01-15T08:32:53;2.34;81.10
76897;SHT30;65856;52.178;21.176;2024-01-15T08:35:20;2.37;81.05
76897;SHT30;65856;52.178;21.176;2024-01-15T08:37:48;2.39;80.80
76897;SHT30;65856;52.178;21.176;2024-01-15T08:40:15;2.43;80.67
76897;SHT30;65856;52.178;21.176;2024-01-15T08:42:41;2.48;80.50
76897;SHT30;65856;52.178;21.176;2024-01-15T08:45:06;2.52;80.20
76897;SHT30;65856;52.178;21.176;2024-01-15T08:47:32;2.53;79.89
76897;SHT30;65856;52.178;21.176;2024-01-15T08:49:58;2.51;79.78
76897;SHT30;65856;52.178;21.176;2024-01-15T08:52:24;2.52;79.72
76897;SHT30;65856;52.178;21.176;2024-01-15T08:54:49;2.54;79.70
76897;SHT30;65856;52.178;21.176;2024-01-15T08:57:15;2.58;79.70
76897;SHT30;65856;52.178;21.176;2024-01-15T08:59:41;2.57;79.83
76897;SHT30;65856;52.178;21.176;2024-01-15T09:02:06;2.54;80.12
76897;SHT30;65856;52.178;21.176;2024-01-15T09:04:32;2.50;80.43
76897;SHT30;65856;52.178;21.176;2024-01-15T09:06:58;2.49;80.72
76897;SHT30;65856;52.178;21.176;2024-01-15T09:09:23;2.48;80.87
76897;SHT30;65856;52.178;21.176;2024-01-15T09:11:49;2.47;80.91
76897;SHT30;65856;52.178;21.176;2024-01-15T09:14:16;2.45;80.89
76897;SHT30;65856;52.178;21.176;2024-01-15T09:16:41;2.43;80.73
76897;SHT30;65856;52.178;21.176;2024-01-15T09:19:06;2.47;80.62
76897;SHT30;65856;52.178;21.176;2024-01-15T09:21:32;2.46;80.38
76897;SHT30;65856;52.178;21.176;2024-01-15T09:23:58;2.48;80.23
76897;SHT30;65856;52.178;21.176;2024-01-15T09:26:23;2.52;80.04
76897;SHT30;65856;52.178;21.176;2024-01-15T09:28:49;2.57;79.88
76897;SHT30;65856;52.178;21.176;2024-01-15T09:31:14;2.61;79.60
76897;SHT30;65856;52.178;21.176;2024-01-15T09:33:42;2.65;79.47
76897;SHT30;65856;52.178;21.176;2024-01-15T09:36:08;2.72;79.29
76897;SHT30;65856;52.178;21.176;2024-01-15T09:38:33;2.80;78.82
76897;SHT30;65856;52.178;21.176;2024-01-15T09:40:59;2.92;78.25
76897;SHT30;65856;52.178;21.176;2024-01-15T09:43:25;3.00;77.87
76897;SHT30;65856;52.178;21.176;2024-01-15T09:45:51;3.05;77.58
76897;SHT30;65856;52.178;21.176;2024-01-15T09:48:16;3.08;77.56
76897;SHT30;65856;52.178;21.176;2024-01-15T09:50:42;3.12;77.36
76897;SHT30;65856;52.178;21.176;2024-01-15T09:53:08;3.16;77.16
76897;SHT30;65856;52.178;21.176;2024-01-15T09:55:35;3.24;76.98
76897;SHT30;65856;52.178;21.176;2024-01-15T09:58:03;3.34;76.66
76897;SHT30;65856;52.178;21.176;2024-01-15T10:00:29;3.45;76.56
76897;SHT30;65856;52.178;21.176;2024-01-15T10:02:57;3.56;76.32
76897;SHT30;65856;52.178;21.176;2024-01-15T10:05:25;3.63;75.88
76897;SHT30;65856;52.178;21.176;2024-01-15T10:07:51;3.65;75.37
76897;SHT30;65856;52.178;21.176;2024-01-15T10:10:20;3.65;74.89
76897;SHT30;65856;52.178;21.176;2024-01-15T10:12:47;3.61;74.28
76897;SHT30;65856;52.178;21.176;2024-01-15T10:15:12;3.57;74.20
76897;SHT30;65856;52.178;21.176;2024-01-15T10:17:38;3.57;74.06
76897;SHT30;65856;52.178;21.176;2024-01-15T10:20:11;3.55;73.76
76897;SHT30;65856;52.178;21.176;2024-01-15T10:22:41;3.52;73.72
76897;SHT30;65856;52.178;21.176;2024-01-15T10:25:16;3.52;73.32
76897;SHT30;65856;52.178;21.176;2024-01-15T10:27:47;3.48;73.09
76897;SHT30;65856;52.178;21.176;2024-01-15T10:30:25;3.50;73.32
76897;SHT30;65856;52.178;21.176;2024-01-15T10:32:57;3.52;73.24
76897;SHT30;65856;52.178;21.176;2024-01-15T10:35:30;3.52;73.15
76897;SHT30;65856;52.178;21.176;2024-01-15T10:37:57;3.49;73.01
76897;SHT30;65856;52.178;21.176;2024-01-15T10:40:26;3.50;73.02
76897;SHT30;65856;52.178;21.176;2024-01-15T10:42:52;3.48;72.72
76897;SHT30;65856;52.178;21.176;2024-01-15T10:45:18;3.45;72.62
76897;SHT30;65856;52.178;21.176;2024-01-15T10:47:44;3.40;72.30
76897;SHT30;65856;52.178;21.176;2024-01-15T10:50:10;3.35;72.57
76897;SHT30;65856;52.178;21.176;2024-01-15T10:52:37;3.33;72.88
76897;SHT30;65856;52.178;21.176;2024-01-15T10:55:08;3.34;73.05
76897;SHT30;65856;52.178;21.176;2024-01-15T10:57:34;3.37;73.36
76897;SHT30;65856;52.178;21.176;2024-01-15T11:00:06;3.53;73.48
76897;SHT30;65856;52.178;21.176;2024-01-15T11:02:35;3.63;73.24
76897;SHT30;65856;52.178;21.176;2024-01-15T11:05:02;3.69;73.04
76897;SHT30;65856;52.178;21.176;2024-01-15T11:07:29;3.71;72.85
76897;SHT30;65856;52.178;21.176;2024-01-15T11:09:56;3.71;72.96
76897;SHT30;65856;52.178;21.176;2024-01-15T11:12:23;3.68;72.80
76897;SHT30;65856;52.178;21.176;2024-01-15T11:14:49;3.63;72.62
76897;SHT30;65856;52.178;21.176;2024-01-15T11:17:15;3.60;72.81
76897;SHT30;65856;52.178;21.176;2024-01-15T11:19:43;3.60;72.94
76897;SHT30;65856;52.178;21.176;2024-01-15T11:22:56;3.58;72.90
76897;SHT30;65856;52.178;21.176;2024-01-15T11:24:56;3.56;72.91
76897;SHT30;65856;52.178;21.176;2024-01-15T11:30:17;3.50;72.97
76897;SHT30;65856;52.178;21.176;2024-01-15T11:32:45;3.46;72.91
76897;SHT30;65856;52.178;21.176;2024-01-15T11:35:11;3.45;72.99
76897;SHT30;65856;52.178;21.176;2024-01-15T11:40:17;3.48;72.82
76897;SHT30;65856;52.178;21.176;2024-01-15T11:42:45;3.47;72.71
76897;SHT30;65856;52.178;21.176;2024-01-15T11:45:11;3.50;72.72
76897;SHT30;65856;52.178;21.176;2024-01-15T11:50:29;3.58;72.60
76897;SHT30;65856;52.178;21.176;2024-01-15T11:52:58;3.62;72.88
76897;SHT30;65856;52.178;21.176;2024-01-15T11:55:27;3.62;72.86
76897;SHT30;65856;52.178;21.176;2024-01-15T11:57:55;3.55;72.76
76897;SHT30;65856;52.178;21.176;2024-01-15T12:00:23;3.51;73.02
76897;SHT30;65856;52.178;21.176;2024-01-15T12:02:49;3.45;73.10
76897;SHT30;65856;52.178;21.176;2024-01-15T12:05:18;3.41;73.46
76897;SHT30;65856;52.178;21.176;2024-01-15T12:07:45;3.37;73.98
76897;SHT30;65856;52.178;21.176;2024-01-15T12:10:14;3.35;74.25
76897;SHT30;65856;52.178;21.176;2024-01-15T12:15:25;3.49;74.22
76897;SHT30;65856;52.178;21.176;2024-01-15T12:17:54;3.49;73.97
76897;SHT30;65856;52.178;21.176;2024-01-15T12:20:22;3.47;73.82
76897;SHT30;65856;52.178;21.176;2024-01-15T12:22:49;3.42;73.93
76897;SHT30;65856;52.178;21.176;2024-01-15T12:25:14;3.38;74.19
76897;SHT30;65856;52.178;21.176;2024-01-15T12:27:40;3.33;74.17
76897;SHT30;65856;52.178;21.176;2024-01-15T12:30:06;3.27;74.35
76897;SHT30;65856;52.178;21.176;2024-01-15T12:32:32;3.23;74.55
76897;SHT30;65856;52.178;21.176;2024-01-15T12:35:00;3.21;74.78
76897;SHT30;65856;52.178;21.176;2024-01-15T12:37:25;3.19;74.98
76897;SHT30;65856;52.178;21.176;2024-01-15T12:39:51;3.15;75.12
76897;SHT30;65856;52.178;21.176;2024-01-15T12:42:17;3.12;75.18
76897;SHT30;65856;52.178;21.176;2024-01-15T12:44:45;3.08;75.19
76897;SHT30;65856;52.178;21.176;2024-01-15T12:47:11;3.05;75.36
76897;SHT30;65856;52.178;21.176;2024-01-15T12:49:38;2.99;75.84
76897;SHT30;65856;52.178;21.176;2024-01-15T12:52:08;2.93;76.37
76897;SHT30;65856;52.178;21.176;2024-01-15T12:54:34;2.89;76.68
76897;SHT30;65856;52.178;21.176;2024-01-15T12:57:00;2.88;76.76
76897;SHT30;65856;52.178;21.176;2024-01-15T12:59:25;2.85;76.77
76897;SHT30;65856;52.178;21.176;2024-01-15T13:01:51;2.86;76.81
76897;SHT30;65856;52.178;21.176;2024-01-15T13:04:26;2.91;76.77
76897;SHT30;65856;52.178;21.176;2024-01-15T13:06:52;2.90;76.50
76897;SHT30;65856;52.178;21.176;2024-01-15T13:09:18;2.85;76.20
76897;SHT30;65856;52.178;21.176;2024-01-15T13:11:46;2.84;76.22
76897;SHT30;65856;52.178;21.176;2024-01-15T13:14:12;2.85;76.18
76897;SHT30;65856;52.178;21.176;2024-01-15T13:16:41;2.84;75.91
76897;SHT30;65856;52.178;21.176;2024-01-15T13:19:07;2.82;76.06
76897;SHT30;65856;52.178;21.176;2024-01-15T13:21:34;2.79;76.74
76897;SHT30;65856;52.178;21.176;2024-01-15T13:23:59;2.70;77.49
76897;SHT30;65856;52.178;21.176;2024-01-15T13:26:25;2.66;77.93
76897;SHT30;65856;52.178;21.176;2024-01-15T13:28:50;2.61;78.33
76897;SHT30;65856;52.178;21.176;2024-01-15T13:31:16;2.54;78.60
76897;SHT30;65856;52.178;21.176;2024-01-15T13:33:41;2.51;78.68
76897;SHT30;65856;52.178;21.176;2024-01-15T13:36:07;2.49;78.82
76897;SHT30;65856;52.178;21.176;2024-01-15T13:38:35;2.47;78.84
76897;SHT30;65856;52.178;21.176;2024-01-15T13:41:03;2.47;78.81
76897;SHT30;65856;52.178;21.176;2024-01-15T13:43:29;2.48;78.82
76897;SHT30;65856;52.178;21.176;2024-01-15T13:45:56;2.46;78.73
76897;SHT30;65856;52.178;21.176;2024-01-15T13:48:22;2.43;78.69
76897;SHT30;65856;52.178;21.176;2024-01-15T13:50:47;2.43;78.52
76897;SHT30;65856;52.178;21.176;2024-01-15T13:53:13;2.42;78.44
76897;SHT30;65856;52.178;21.176;2024-01-15T13:55:38;2.44;78.35
76897;SHT30;65856;52.178;21.176;2024-01-15T13:58:04;2.45;78.20
76897;SHT30;65856;52.178;21.176;2024-01-15T14:00:31;2.43;78.07
76897;SHT30;65856;52.178;21.176;2024-01-15T14:02:57;2.44;78.04
76897;SHT30;65856;52.178;21.176;2024-01-15T14:05:22;2.45;78.03
76897;SHT30;65856;52.178;21.176;2024-01-15T14:07:48;2.43;78.02
76897;SHT30;65856;52.178;21.176;2024-01-15T14:10:14;2.42;78.00
76897;SHT30;65856;52.178;21.176;2024-01-15T14:12:39;2.42;78.03
76897;SHT30;65856;52.178;21.176;2024-01-15T14:15:05;2.40;78.00
76897;SHT30;65856;52.178;21.176;2024-01-15T14:17:31;2.40;77.95
76897;SHT30;65856;52.178;21.176;2024-01-15T14:19:57;2.39;77.93
76897;SHT30;65856;52.178;21.176;2024-01-15T14:22:22;2.39;77.90
76897;SHT30;65856;52.178;21.176;2024-01-15T14:24:48;2.36;77.89
76897;SHT30;65856;52.178;21.176;2024-01-15T14:27:14;2.36;77.85
76897;SHT30;65856;52.178;21.176;2024-01-15T14:29:39;2.34;77.81
76897;SHT30;65856;52.178;21.176;2024-01-15T14:32:05;2.34;77.80
76897;SHT30;65856;52.178;21.176;2024-01-15T14:34:31;2.33;77.81
76897;SHT30;65856;52.178;21.176;2024-01-15T14:36:56;2.34;77.77
76897;SHT30;65856;52.178;21.176;2024-01-15T14:39:22;2.33;77.72
76897;SHT30;65856;52.178;21.176;2024-01-15T14:41:48;2.45;78.00
76897;SHT30;65856;52.178;21.176;2024-01-15T14:44:13;2.75;77.59
76897;SHT30;65856;52.178;21.176;2024-01-15T14:46:39;2.92;77.20
76897;SHT30;65856;52.178;21.176;2024-01-15T14:49:05;2.95;76.88
76897;SHT30;65856;52.178;21.176;2024-01-15T14:51:30;2.89;76.68
76897;SHT30;65856;52.178;21.176;2024-01-15T14:53:56;2.82;76.60
76897;SHT30;65856;52.178;21.176;2024-01-15T14:56:21;2.72;76.53
76897;SHT30;65856;52.178;21.176;2024-01-15T14:58:47;2.67;76.63
76897;SHT30;65856;52.178;21.176;2024-01-15T15:01:13;2.62;76.55
76897;SHT30;65856;52.178;21.176;2024-01-15T15:03:38;2.59;76.70
76897;SHT30;65856;52.178;21.176;2024-01-15T15:06:04;2.56;76.79
76897;SHT30;65856;52.178;21.176;2024-01-15T15:08:32;2.51;76.81
76897;SHT30;65856;52.178;21.176;2024-01-15T15:10:57;2.45;76.96
76897;SHT30;65856;52.178;21.176;2024-01-15T15:13:23;2.43;76.93
76897;SHT30;65856;52.178;21.176;2024-01-15T15:15:48;2.39;76.86
76897;SHT30;65856;52.178;21.176;2024-01-15T15:18:14;2.37;76.84
76897;SHT30;65856;52.178;21.176;2024-01-15T15:20:39;2.36;76.87
76897;SHT30;65856;52.178;21.176;2024-01-15T15:23:05;2.33;76.88
76897;SHT30;65856;52.178;21.176;2024-01-15T15:25:33;2.31;76.98
76897;SHT30;65856;52.178;21.176;2024-01-15T15:28:00;2.30;77.04
76897;SHT30;65856;52.178;21.176;2024-01-15T15:30:26;2.26;76.92
76897;SHT30;65856;52.178;21.176;2024-01-15T15:32:52;2.23;76.92
76897;SHT30;65856;52.178;21.176;2024-01-15T15:35:17;2.19;76.91